Time;durP1;ratioP1;P1;durP2;ratioP2;P2;SDS_P1;SDS_P2;PMS_P1;PMS_P2;Temp;Humidity;BMP_temperature;BMP_pressure;BME280_temperature;BME280_humidity;BME280_pressure;Samples;Min_cycle;Max_cycle;Signal;HPM_P1;HPM_P2
2024/04/05 00:00:46;;;;;;;;;;;;;;;-144.99;100.00;52533.69;5008143;28;19935;-69
2024/04/05 00:03:12;;;;;;;;;;;;;;;-144.99;100.00;52533.69;4997793;28;20016;-68
2024/04/05 00:05:38;;;;;;;;;;;;;;;-144.99;100.00;52558.16;5001557;28;19926;-70
2024/04/05 00:08:05;;;;;;;;;;;;;;;-144.99;100.00;52558.16;4998510;28;20035;-70
2024/04/05 00:10:32;;;;;;;;;;;;;;;-144.99;100.00;52517.41;5007579;28;20021;-67
2024/04/05 00:12:58;;;;;;;;;;;;;;;-144.99;100.00;52517.41;5011191;28;19956;-68
2024/04/05 00:15:24;;;;;;;;;;;;;;;-144.99;100.00;52566.31;5002904;28;20024;-69
2024/04/05 00:17:50;;;;;;;;;;;;;;;-144.99;100.00;52574.47;4994190;28;20012;-67
2024/04/05 00:20:16;;;;;;;;;;;;;;;-144.99;100.00;52592.81;5004680;28;19980;-69
2024/04/05 00:22:42;;;;;;;;;;;;;;;-144.99;100.00;52562.25;5008057;28;19930;-68
2024/04/05 00:25:08;;;;;;;;;;;;;;;-144.99;100.00;52558.16;5006703;28;19965;-68
2024/04/05 00:27:36;;;;;;;;;;;;;;;-144.99;100.00;52537.78;5010751;28;19980;-67
2024/04/05 00:30:02;;;;;;;;;;;;;;;-144.99;100.00;52554.09;5008870;28;19991;-68
2024/04/05 00:32:28;;;;;;;;;;;;;;;-144.99;100.00;52554.09;5005530;28;19930;-66
2024/04/05 00:34:54;;;;;;;;;;;;;;;-144.99;100.00;52533.69;5004826;28;19926;-69
2024/04/05 00:37:20;;;;;;;;;;;;;;;-144.99;100.00;52554.09;4996555;28;19926;-67
2024/04/05 00:39:46;;;;;;;;;;;;;;;-144.99;100.00;52558.16;4997252;28;20035;-68
2024/04/05 00:42:12;;;;;;;;;;;;;;;-144.99;100.00;52570.38;5005069;28;19968;-66
2024/04/05 00:44:39;;;;;;;;;;;;;;;-144.99;100.00;52568.34;5004969;28;19929;-69
2024/04/05 00:47:06;;;;;;;;;;;;;;;-144.99;100.00;52574.47;5005421;28;19959;-66
2024/04/05 00:49:31;;;;;;;;;;;;;;;-144.99;100.00;52541.84;5008767;28;19979;-67
2024/04/05 00:51:59;;;;;;;;;;;;;;;-144.99;100.00;52554.09;5010447;28;19929;-67
2024/04/05 00:54:25;;;;;;;;;;;;;;;-144.99;100.00;52578.53;5007896;28;20016;-67
2024/04/05 00:56:52;;;;;;;;;;;;;;;-144.99;100.00;52554.09;5004901;28;20032;-69
2024/04/05 00:59:18;;;;;;;;;;;;;;;-144.99;100.00;52566.31;5009090;28;19947;-67
2024/04/05 01:01:46;;;;;;;;;;;;;;;-144.99;100.00;52554.09;5001697;28;20396;-67
2024/04/05 01:04:12;;;;;;;;;;;;;;;-144.99;100.00;52578.53;5002390;28;20020;-68
2024/04/05 01:06:38;;;;;;;;;;;;;;;-144.99;100.00;52582.63;5005585;28;20032;-68
2024/04/05 01:09:04;;;;;;;;;;;;;;;-144.99;100.00;52562.25;5007025;28;19968;-69
2024/04/05 01:11:30;;;;;;;;;;;;;;;-144.99;100.00;52562.25;5010091;28;19965;-69
2024/04/05 01:13:56;;;;;;;;;;;;;;;-144.99;100.00;52543.91;5000198;28;19933;-69
2024/04/05 01:16:22;;;;;;;;;;;;;;;-144.99;100.00;52566.31;5006363;28;19972;-70
2024/04/05 01:18:50;;;;;;;;;;;;;;;-144.99;100.00;52513.31;4999107;28;20369;-70
2024/04/05 01:21:17;;;;;;;;;;;;;;;-144.99;100.00;52554.09;5003726;28;20299;-70
2024/04/05 01:23:43;;;;;;;;;;;;;;;-144.99;100.00;52566.31;4993321;28;20008;-71
2024/04/05 01:26:10;;;;;;;;;;;;;;;-144.99;100.00;52560.19;5001191;28;20295;-71
2024/04/05 01:28:35;;;;;;;;;;;;;;;-144.99;100.00;52558.16;5008104;28;19977;-71
2024/04/05 01:31:02;;;;;;;;;;;;;;;-144.99;100.00;52552.03;5000441;28;20124;-70
2024/04/05 01:33:27;;;;;;;;;;;;;;;-144.99;100.00;52554.09;5003243;28;20008;-70
2024/04/05 01:35:54;;;;;;;;;;;;;;;-144.99;100.00;52560.19;5007190;28;20372;-69
2024/04/05 01:38:19;;;;;;;;;;;;;;;-144.99;100.00;52590.78;5004749;28;20768;-70
2024/04/05 01:40:47;;;;;;;;;;;;;;;-144.99;100.00;52582.63;5009502;28;19968;-69
2024/04/05 01:43:13;;;;;;;;;;;;;;;-144.99;100.00;52562.25;5003652;28;19925;-71
2024/04/05 01:45:39;;;;;;;;;;;;;;;-144.99;100.00;52566.31;5006181;28;20458;-69
2024/04/05 01:48:05;;;;;;;;;;;;;;;-144.99;100.00;52584.66;4999212;28;19979;-70
2024/04/05 01:50:32;;;;;;;;;;;;;;;-144.99;100.00;52558.16;5001678;28;19965;-70
2024/04/05 01:52:57;;;;;;;;;;;;;;;-144.99;100.00;52537.78;5007663;28;19925;-68
2024/04/05 01:55:24;;;;;;;;;;;;;;;-144.99;100.00;52525.56;4994970;28;20023;-69
2024/04/05 01:57:51;;;;;;;;;;;;;;;-144.99;100.00;52570.38;5007561;28;19929;-69
2024/04/05 02:00:18;;;;;;;;;;;;;;;-144.99;100.00;52547.97;5003564;28;20396;-69
2024/04/05 02:02:44;;;;;;;;;;;;;;;-144.99;100.00;52533.69;4996124;28;19988;-69
2024/04/05 02:05:10;;;;;;;;;;;;;;;-144.99;100.00;52578.53;5000770;28;19930;-70
2024/04/05 02:07:36;;;;;;;;;;;;;;;-144.99;100.00;52531.66;4998214;28;19988;-69
2024/04/05 02:10:02;;;;;;;;;;;;;;;-144.99;100.00;52562.25;5007504;28;19965;-70
2024/04/05 02:12:28;;;;;;;;;;;;;;;-144.99;100.00;52558.16;4996649;28;19930;-71
2024/04/05 02:14:56;;;;;;;;;;;;;;;-144.99;100.00;52545.94;5007287;28;19930;-71
2024/04/05 02:17:22;;;;;;;;;;;;;;;-144.99;100.00;52521.47;5008526;28;19980;-69
2024/04/05 02:19:50;;;;;;;;;;;;;;;-144.99;100.00;52570.38;5008702;28;19961;-71
2024/04/05 02:22:16;;;;;;;;;;;;;;;-144.99;100.00;52521.47;5006451;28;19929;-68
2024/04/05 02:24:42;;;;;;;;;;;;;;;-144.99;100.00;52566.31;4998696;28;19995;-68
2024/04/05 02:27:08;;;;;;;;;;;;;;;-144.99;100.00;52529.63;4991660;28;20024;-67
2024/04/05 02:29:34;;;;;;;;;;;;;;;-144.99;100.00;52586.69;4993534;28;20012;-64
2024/04/05 02:32:01;;;;;;;;;;;;;;;-144.99;100.00;52566.31;5004542;28;20024;-65
2024/04/05 02:34:27;;;;;;;;;;;;;;;-144.99;100.00;52550.00;4999860;28;19988;-66
2024/04/05 02:36:53;;;;;;;;;;;;;;;-144.99;100.00;52529.63;4995541;28;20308;-67
2024/04/05 02:39:20;;;;;;;;;;;;;;;-144.99;100.00;52578.53;4993472;28;19969;-67
2024/04/05 02:41:46;;;;;;;;;;;;;;;-144.99;100.00;52564.28;4997943;28;19984;-67
2024/04/05 02:44:12;;;;;;;;;;;;;;;-144.99;100.00;52554.09;5006102;28;19926;-67
2024/04/05 02:46:38;;;;;;;;;;;;;;;-144.99;100.00;52554.09;4995130;28;19996;-67
2024/04/05 02:49:06;;;;;;;;;;;;;;;-144.99;100.00;52552.03;5007202;28;20016;-66
2024/04/05 02:51:31;;;;;;;;;;;;;;;-144.99;100.00;52574.47;5001611;28;19933;-66
2024/04/05 02:53:58;;;;;;;;;;;;;;;-144.99;100.00;52541.84;5000089;28;19980;-66
2024/04/05 02:56:23;;;;;;;;;;;;;;;-144.99;100.00;52554.09;5005214;28;19973;-67
2024/04/05 02:58:50;;;;;;;;;;;;;;;-144.99;100.00;52574.47;5008272;28;19986;-67
2024/04/05 03:01:15;;;;;;;;;;;;;;;-144.99;100.00;52492.94;5005395;28;19925;-67
2024/04/05 03:03:41;;;;;;;;;;;;;;;-144.99;100.00;52537.78;5005575;28;19987;-68
2024/04/05 03:06:08;;;;;;;;;;;;;;;-144.99;100.00;52527.59;4999676;28;19971;-68
2024/04/05 03:08:35;;;;;;;;;;;;;;;-144.99;100.00;52566.31;5001525;28;19929;-67
2024/04/05 03:11:01;;;;;;;;;;;;;;;-144.99;100.00;52525.56;5000849;28;19930;-67
2024/04/05 03:13:27;;;;;;;;;;;;;;;-144.99;100.00;52558.16;5002580;28;19940;-66
2024/04/05 03:15:53;;;;;;;;;;;;;;;-144.99;100.00;52562.25;5002052;28;19969;-66
2024/04/05 03:18:20;;;;;;;;;;;;;;;-144.99;100.00;52509.25;5008499;28;19957;-69
2024/04/05 03:20:46;;;;;;;;;;;;;;;-144.99;100.00;52541.84;4991931;28;19973;-67
2024/04/05 03:23:14;;;;;;;;;;;;;;;-144.99;100.00;52554.09;5008324;28;20015;-63
2024/04/05 03:25:39;;;;;;;;;;;;;;;-144.99;100.00;52509.25;4995512;28;20424;-63
2024/04/05 03:28:06;;;;;;;;;;;;;;;-144.99;100.00;52550.00;5007782;28;20015;-63
2024/04/05 03:30:32;;;;;;;;;;;;;;;-144.99;100.00;52529.63;5003298;28;19967;-66
2024/04/05 03:32:58;;;;;;;;;;;;;;;-144.99;100.00;52539.81;4989774;28;19972;-67
2024/04/05 03:35:24;;;;;;;;;;;;;;;-144.99;100.00;52541.84;5002891;28;19976;-68
2024/04/05 03:37:52;;;;;;;;;;;;;;;-144.99;100.00;52574.47;5003955;28;19969;-68
2024/04/05 03:40:20;;;;;;;;;;;;;;;-144.99;100.00;52525.56;5003693;28;19976;-64
2024/04/05 03:42:45;;;;;;;;;;;;;;;-144.99;100.00;52562.25;4992053;28;20005;-64
2024/04/05 03:45:12;;;;;;;;;;;;;;;-144.99;100.00;52558.16;4995319;28;20020;-65
2024/04/05 03:47:37;;;;;;;;;;;;;;;-144.99;100.00;52547.97;5005476;28;20031;-68
2024/04/05 03:50:04;;;;;;;;;;;;;;;-144.99;100.00;52533.69;5005700;28;20348;-68
2024/04/05 03:52:30;;;;;;;;;;;;;;;-144.99;100.00;52529.63;5002778;28;19930;-68
2024/04/05 03:54:56;;;;;;;;;;;;;;;-144.99;100.00;52576.50;5011534;28;19944;-66
2024/04/05 03:57:23;;;;;;;;;;;;;;;-144.99;100.00;52550.00;5009795;28;19926;-66
2024/04/05 03:59:49;;;;;;;;;;;;;;;-144.99;100.00;52554.09;5004116;28;19972;-66
2024/04/05 04:02:15;;;;;;;;;;;;;;;-144.99;100.00;52570.38;5010889;28;19925;-66
2024/04/05 04:04:41;;;;;;;;;;;;;;;-144.99;100.00;52533.69;5005545;28;20020;-66
2024/04/05 04:07:07;;;;;;;;;;;;;;;-144.99;100.00;52519.44;4998331;28;20020;-65
2024/04/05 04:09:33;;;;;;;;;;;;;;;-144.99;100.00;52562.25;5005762;28;20580;-64
2024/04/05 04:11:59;;;;;;;;;;;;;;;-144.99;100.00;52537.78;5009731;28;19948;-69
2024/04/05 04:14:27;;;;;;;;;;;;;;;-144.99;100.00;52562.25;4995718;28;20382;-68
2024/04/05 04:16:52;;;;;;;;;;;;;;;-144.99;100.00;52562.25;4999324;28;19975;-67
2024/04/05 04:19:19;;;;;;;;;;;;;;;-144.99;100.00;52574.47;5002828;28;19976;-67
2024/04/05 04:21:44;;;;;;;;;;;;;;;-144.99;100.00;52550.00;4997684;28;19976;-68
2024/04/05 04:24:11;;;;;;;;;;;;;;;-144.99;100.00;52509.25;5005090;28;19969;-68
2024/04/05 04:26:36;;;;;;;;;;;;;;;-144.99;100.00;52578.53;5000627;28;20012;-68
2024/04/05 04:29:04;;;;;;;;;;;;;;;-144.99;100.00;52545.94;4991753;28;20025;-67
2024/04/05 04:31:31;;;;;;;;;;;;;;;-144.99;100.00;52533.69;5009877;28;20008;-67
2024/04/05 04:33:57;;;;;;;;;;;;;;;-144.99;100.00;52545.94;4999593;28;19926;-68
2024/04/05 04:36:23;;;;;;;;;;;;;;;-144.99;100.00;52521.47;4997764;28;19925;-67
2024/04/05 04:38:51;;;;;;;;;;;;;;;-144.99;100.00;52513.31;4998404;28;20443;-67
2024/04/05 04:41:16;;;;;;;;;;;;;;;-144.99;100.00;52552.03;5007130;28;19956;-68
2024/04/05 04:43:43;;;;;;;;;;;;;;;-144.99;100.00;52550.00;5002684;28;20015;-68
2024/04/05 04:46:10;;;;;;;;;;;;;;;-144.99;100.00;52545.94;5001866;28;19976;-68
2024/04/05 04:48:39;;;;;;;;;;;;;;;-144.99;100.00;52562.25;5007265;28;19934;-65
2024/04/05 04:51:04;;;;;;;;;;;;;;;-144.99;100.00;52533.69;5011089;28;20313;-65
2024/04/05 04:53:31;;;;;;;;;;;;;;;-144.99;100.00;52529.63;5006976;28;20870;-68
2024/04/05 04:55:56;;;;;;;;;;;;;;;-144.99;100.00;52490.91;5000361;28;19929;-64
2024/04/05 04:58:26;;;;;;;;;;;;;;;-144.99;100.00;52545.94;4998474;28;20005;-65
2024/04/05 05:00:52;;;;;;;;;;;;;;;-144.99;100.00;52558.16;4996993;28;20311;-66
2024/04/05 05:03:18;;;;;;;;;;;;;;;-144.99;100.00;52545.94;5001573;28;20012;-63
2024/04/05 05:05:45;;;;;;;;;;;;;;;-144.99;100.00;52592.81;5011273;28;19965;-62
2024/04/05 05:08:12;;;;;;;;;;;;;;;-144.99;100.00;52568.34;4999369;28;20264;-63
2024/04/05 05:10:38;;;;;;;;;;;;;;;-144.99;100.00;52558.16;5008152;28;19977;-64
2024/04/05 05:13:05;;;;;;;;;;;;;;;-144.99;100.00;52556.13;5005769;28;19930;-65
2024/04/05 05:15:30;;;;;;;;;;;;;;;-144.99;100.00;52554.09;5000548;28;19929;-65
2024/04/05 05:17:57;;;;;;;;;;;;;;;-144.99;100.00;52572.44;4998097;28;19925;-63
2024/04/05 05:20:26;;;;;;;;;;;;;;;-144.99;100.00;52525.56;5003312;28;19984;-68
2024/04/05 05:22:54;;;;;;;;;;;;;;;-144.99;100.00;52562.25;4992741;28;19933;-70
2024/04/05 05:25:20;;;;;;;;;;;;;;;-144.99;100.00;52545.94;4998988;28;20446;-69
2024/04/05 05:27:46;;;;;;;;;;;;;;;-144.99;100.00;52566.31;4989827;28;20180;-68
2024/04/05 05:30:12;;;;;;;;;;;;;;;-144.99;100.00;52541.84;5001426;28;20532;-68
2024/04/05 05:32:38;;;;;;;;;;;;;;;-144.99;100.00;52564.28;4999269;28;19965;-68
2024/04/05 05:35:07;;;;;;;;;;;;;;;-144.99;100.00;52594.84;5009069;28;19937;-67
2024/04/05 05:37:33;;;;;;;;;;;;;;;-144.99;100.00;52570.38;4998861;28;19937;-67
2024/04/05 05:40:00;;;;;;;;;;;;;;;-144.99;100.00;52533.69;4997536;28;19983;-67
2024/04/05 05:42:28;;;;;;;;;;;;;;;-144.99;100.00;52562.25;5001923;28;19932;-66
2024/04/05 05:44:53;;;;;;;;;;;;;;;-144.99;100.00;52537.78;4995586;28;19937;-68
2024/04/05 05:47:20;;;;;;;;;;;;;;;-144.99;100.00;52525.56;5000185;28;20327;-68
2024/04/05 05:49:45;;;;;;;;;;;;;;;-144.99;100.00;52525.56;5007398;28;20018;-68
2024/04/05 05:52:12;;;;;;;;;;;;;;;-144.99;100.00;52533.69;5000436;28;19969;-69
2024/04/05 05:54:37;;;;;;;;;;;;;;;-144.99;100.00;52529.63;4997529;28;19929;-68
2024/04/05 05:57:05;;;;;;;;;;;;;;;-144.99;100.00;52541.84;4994951;28;20023;-68
2024/04/05 05:59:31;;;;;;;;;;;;;;;-144.99;100.00;52562.25;5001009;28;20410;-68
2024/04/05 06:01:57;;;;;;;;;;;;;;;-144.99;100.00;52543.91;4992835;28;19933;-70
2024/04/05 06:04:24;;;;;;;;;;;;;;;-144.99;100.00;52558.16;4996451;28;20369;-70
2024/04/05 06:06:51;;;;;;;;;;;;;;;-144.99;100.00;52562.25;4990271;28;19933;-70
2024/04/05 06:09:16;;;;;;;;;;;;;;;-144.99;100.00;52550.00;4999496;28;19974;-67
2024/04/05 06:11:43;;;;;;;;;;;;;;;-144.99;100.00;52513.31;5007321;28;19935;-68
2024/04/05 06:14:10;;;;;;;;;;;;;;;-144.99;100.00;52543.91;4995506;28;20029;-68
2024/04/05 06:16:36;;;;;;;;;;;;;;;-144.99;100.00;52586.69;4996913;28;20056;-67
2024/04/05 06:19:02;;;;;;;;;;;;;;;-144.99;100.00;52529.63;5000831;28;19983;-68
2024/04/05 06:21:29;;;;;;;;;;;;;;;-144.99;100.00;52505.16;4992946;28;19973;-68
2024/04/05 06:23:54;;;;;;;;;;;;;;;-144.99;100.00;52521.47;5002483;28;20000;-68
2024/04/05 06:26:21;;;;;;;;;;;;;;;-144.99;100.00;52558.16;4997100;28;19933;-68
2024/04/05 06:28:46;;;;;;;;;;;;;;;-144.99;100.00;52545.94;4991297;28;19975;-67
2024/04/05 06:31:14;;;;;;;;;;;;;;;-144.99;100.00;52562.25;4994806;28;19933;-67
2024/04/05 06:33:39;;;;;;;;;;;;;;;-144.99;100.00;52562.25;4998376;28;20023;-67
2024/04/05 06:36:07;;;;;;;;;;;;;;;-144.99;100.00;52525.56;5001886;28;19973;-67
2024/04/05 06:38:32;;;;;;;;;;;;;;;-144.99;100.00;52582.63;5002095;28;20387;-68
2024/04/05 06:40:59;;;;;;;;;;;;;;;-144.99;100.00;52566.31;5000356;28;19938;-67
2024/04/05 06:43:25;;;;;;;;;;;;;;;-144.99;100.00;52547.97;5000580;28;20371;-67
2024/04/05 06:45:55;;;;;;;;;;;;;;;-144.99;100.00;52550.00;5005484;28;19926;-68
2024/04/05 06:48:22;;;;;;;;;;;;;;;-144.99;100.00;52529.63;5005155;28;20187;-68
2024/04/05 06:50:49;;;;;;;;;;;;;;;-144.99;100.00;52541.84;4995426;28;19930;-68
2024/04/05 06:53:14;;;;;;;;;;;;;;;-144.99;100.00;52525.56;4995983;28;19925;-68
2024/04/05 06:55:45;;;;;;;;;;;;;;;-144.99;100.00;52558.16;4999420;28;19940;-68
2024/04/05 06:58:12;;;;;;;;;;;;;;;-144.99;100.00;52537.78;5004109;28;20020;-68
2024/04/05 07:00:38;;;;;;;;;;;;;;;-144.99;100.00;52521.47;4996503;28;19925;-68
2024/04/05 07:03:04;;;;;;;;;;;;;;;-144.99;100.00;52554.09;5006570;28;19961;-68
2024/04/05 07:05:32;;;;;;;;;;;;;;;-144.99;100.00;52566.31;4991407;28;19932;-68
2024/04/05 07:07:57;;;;;;;;;;;;;;;-144.99;100.00;52545.94;4995397;28;19925;-68
2024/04/05 07:10:24;;;;;;;;;;;;;;;-144.99;100.00;52525.56;4998281;28;19926;-67
2024/04/05 07:12:50;;;;;;;;;;;;;;;-144.99;100.00;52590.78;4994846;28;20324;-67
2024/04/05 07:15:17;;;;;;;;;;;;;;;-144.99;100.00;52507.19;5002685;28;20395;-67
2024/04/05 07:17:48;;;;;;;;;;;;;;;-144.99;100.00;52533.69;5006734;28;19926;-68
2024/04/05 07:20:15;;;;;;;;;;;;;;;-144.99;100.00;52586.69;5000808;28;19926;-68
2024/04/05 07:22:42;;;;;;;;;;;;;;;-144.99;100.00;52574.47;5007585;28;19948;-68
2024/04/05 07:25:09;;;;;;;;;;;;;;;-144.99;100.00;52578.53;4992544;28;19925;-68
2024/04/05 07:27:34;;;;;;;;;;;;;;;-144.99;100.00;52543.91;4999261;28;20311;-68
2024/04/05 07:30:01;;;;;;;;;;;;;;;-144.99;100.00;52513.31;5003061;28;20348;-68
2024/04/05 07:32:27;;;;;;;;;;;;;;;-144.99;100.00;52517.41;5005796;28;19931;-69
2024/04/05 07:34:53;;;;;;;;;;;;;;;-144.99;100.00;52531.66;5001390;28;19926;-69
2024/04/05 07:37:20;;;;;;;;;;;;;;;-144.99;100.00;52554.09;5003781;28;19972;-69
2024/04/05 07:39:48;;;;;;;;;;;;;;;-144.99;100.00;52558.16;4998222;28;19926;-69
2024/04/05 07:42:13;;;;;;;;;;;;;;;-144.99;100.00;52529.63;4999022;28;20442;-69
2024/04/05 07:44:40;;;;;;;;;;;;;;;-144.99;100.00;52558.16;5000450;28;19933;-68
2024/04/05 07:47:06;;;;;;;;;;;;;;;-144.99;100.00;52497.00;5001047;28;20024;-68
2024/04/05 07:49:32;;;;;;;;;;;;;;;-144.99;100.00;52545.94;4998976;28;20048;-68
2024/04/05 07:51:58;;;;;;;;;;;;;;;-144.99;100.00;52562.25;4996485;28;19975;-68
2024/04/05 07:54:24;;;;;;;;;;;;;;;-144.99;100.00;52550.00;5001534;28;19977;-68
2024/04/05 07:56:52;;;;;;;;;;;;;;;-144.99;100.00;52574.47;4999244;28;20427;-68
2024/04/05 07:59:18;;;;;;;;;;;;;;;-144.99;100.00;52539.81;5005736;28;19980;-68
2024/04/05 08:01:44;;;;;;;;;;;;;;;-144.99;100.00;52539.81;4998317;28;19976;-68
2024/04/05 08:04:10;;;;;;;;;;;;;;;-144.99;100.00;52529.63;4995778;28;20418;-68
2024/04/05 08:06:36;;;;;;;;;;;;;;;-144.99;100.00;52537.78;5005923;28;20056;-67
2024/04/05 08:09:03;;;;;;;;;;;;;;;-144.99;100.00;52517.41;4994074;28;20016;-67
2024/04/05 08:11:28;;;;;;;;;;;;;;;-144.99;100.00;52521.47;4999991;28;19936;-67
2024/04/05 08:13:56;;;;;;;;;;;;;;;-144.99;100.00;52521.47;4998166;28;19926;-67
2024/04/05 08:16:22;;;;;;;;;;;;;;;-144.99;100.00;52525.56;5006889;28;20036;-68
2024/04/05 08:18:49;;;;;;;;;;;;;;;-144.99;100.00;52554.09;5002337;28;20005;-68
2024/04/05 08:21:15;;;;;;;;;;;;;;;-144.99;100.00;52513.31;4996861;28;20287;-67
2024/04/05 08:23:42;;;;;;;;;;;;;;;-144.99;100.00;52486.81;4994034;28;19930;-67
2024/04/05 08:26:08;;;;;;;;;;;;;;;-144.99;100.00;52492.94;5001822;28;20088;-67
2024/04/05 08:28:34;;;;;;;;;;;;;;;-144.99;100.00;52505.16;4992782;28;20053;-67
2024/04/05 08:31:02;;;;;;;;;;;;;;;-144.99;100.00;52448.09;5005597;28;19926;-65
2024/04/05 08:33:30;;;;;;;;;;;;;;;-144.99;100.00;52505.16;5007334;28;20439;-67
2024/04/05 08:35:56;;;;;;;;;;;;;;;-144.99;100.00;52497.00;4999487;28;20454;-67
2024/04/05 08:38:22;;;;;;;;;;;;;;;-144.99;100.00;52472.56;5002292;28;19965;-67
2024/04/05 08:40:48;;;;;;;;;;;;;;;-144.99;100.00;52507.19;4998790;28;19926;-67
2024/04/05 08:43:16;;;;;;;;;;;;;;;-144.99;100.00;52492.94;5008703;28;20368;-67
2024/04/05 08:45:42;;;;;;;;;;;;;;;-144.99;100.00;52484.78;4994505;28;19964;-67
2024/04/05 08:48:10;;;;;;;;;;;;;;;-144.99;100.00;52452.16;5008845;28;19968;-68
2024/04/05 08:50:36;;;;;;;;;;;;;;;-144.99;100.00;52492.94;5004234;28;20008;-68
2024/04/05 08:53:03;;;;;;;;;;;;;;;-144.99;100.00;52476.63;5000719;28;20388;-67
2024/04/05 08:55:29;;;;;;;;;;;;;;;-144.99;99.65;52499.06;5005293;28;20004;-67
2024/04/05 08:57:55;;;;;;;;;;;;;;;-144.99;99.09;52464.41;5003415;28;20355;-67
2024/04/05 09:00:23;;;;;;;;;;;;;;;-144.99;100.00;52497.00;5004591;28;19934;-68
2024/04/05 09:02:51;;;;;;;;;;;;;;;-144.99;100.00;52444.03;5000678;28;19929;-67
2024/04/05 09:05:19;;;;;;;;;;;;;;;-144.99;99.21;52460.31;4993437;28;19932;-67
2024/04/05 09:07:45;;;;;;;;;;;;;;;-144.99;99.28;52439.94;4999835;28;20028;-67
2024/04/05 09:10:11;;;;;;;;;;;;;;;-144.99;98.47;52439.94;4995845;28;19961;-67
2024/04/05 09:12:46;;;;;;;;;;;;;;;-144.99;99.64;52476.63;4990268;28;19979;-67
2024/04/05 09:15:16;;;;;;;;;;;;;;;-144.99;99.95;52507.19;4997092;28;19963;-68
2024/04/05 09:17:45;;;;;;;;;;;;;;;-144.99;100.00;52492.94;5003736;28;19933;-68
2024/04/05 09:20:16;;;;;;;;;;;;;;;-144.99;100.00;52492.94;5004212;28;19961;-67
2024/04/05 09:22:44;;;;;;;;;;;;;;;-144.99;100.00;52472.56;5000396;28;19935;-67
2024/04/05 09:25:09;;;;;;;;;;;;;;;-144.99;99.46;52472.56;5006128;28;19940;-67
2024/04/05 09:27:36;;;;;;;;;;;;;;;-144.99;99.49;52484.78;5002796;28;20004;-68
2024/04/05 09:30:02;;;;;;;;;;;;;;;-144.99;98.80;52513.31;4999341;28;19972;-67
2024/04/05 09:32:28;;;;;;;;;;;;;;;-144.99;99.07;52476.63;5003281;28;19961;-70
2024/04/05 09:34:56;;;;;;;;;;;;;;;-144.99;99.05;52492.94;4998207;28;19933;-67
2024/04/05 09:37:25;;;;;;;;;;;;;;;-144.99;99.30;52490.91;5008023;28;19934;-66
2024/04/05 09:39:52;;;;;;;;;;;;;;;-144.99;99.27;52472.56;5001171;28;19941;-66
2024/04/05 09:42:21;;;;;;;;;;;;;;;-144.99;100.00;52480.72;4995628;28;19925;-67
2024/04/05 09:44:49;;;;;;;;;;;;;;;-144.99;99.72;52494.97;5003383;28;19933;-67
2024/04/05 09:47:16;;;;;;;;;;;;;;;-144.99;99.77;52480.72;5003226;28;19937;-66
2024/04/05 09:49:41;;;;;;;;;;;;;;;-144.99;99.45;52474.59;4996995;28;19925;-67
2024/04/05 09:52:10;;;;;;;;;;;;;;;-144.99;98.77;52431.78;5004278;28;19940;-67
2024/04/05 09:54:39;;;;;;;;;;;;;;;-144.99;98.55;52492.94;4999065;28;19975;-67
2024/04/05 09:57:08;;;;;;;;;;;;;;;-144.99;99.28;52474.59;4997809;28;20356;-67
2024/04/05 09:59:34;;;;;;;;;;;;;;;-144.99;99.08;52468.47;5002830;28;20059;-66
2024/04/05 10:02:01;;;;;;;;;;;;;;;-144.99;99.60;52480.72;5003195;28;20477;-69
2024/04/05 10:04:26;;;;;;;;;;;;;;;-144.99;98.06;52460.31;4994717;28;19961;-66
2024/04/05 10:06:53;;;;;;;;;;;;;;;-144.99;95.89;52468.47;4996589;28;20000;-67
2024/04/05 10:09:19;;;;;;;;;;;;;;;-144.99;96.50;52427.72;4997437;28;19965;-67
2024/04/05 10:11:46;;;;;;;;;;;;;;;-144.99;95.18;52395.09;4997779;28;19936;-67
2024/04/05 10:14:20;;;;;;;;;;;;;;;-144.99;94.34;52421.59;4996639;28;19972;-66
2024/04/05 10:16:47;;;;;;;;;;;;;;;-144.99;91.95;52407.31;4994138;28;19948;-67
2024/04/05 10:19:13;;;;;;;;;;;;;;;-144.99;92.88;52423.63;5005243;28;19925;-67
2024/04/05 10:21:40;;;;;;;;;;;;;;;-144.99;92.92;52456.25;5001740;28;20019;-67
2024/04/05 10:24:07;;;;;;;;;;;;;;;-144.99;93.00;52452.16;4999984;28;20221;-68
2024/04/05 10:26:34;;;;;;;;;;;;;;;-144.99;94.70;52492.94;4997782;28;20040;-67
2024/04/05 10:29:04;;;;;;;;;;;;;;;-144.99;96.31;52490.91;4998850;28;19976;-67
2024/04/05 10:31:33;;;;;;;;;;;;;;;-144.99;97.43;52497.00;4997815;28;20029;-68
2024/04/05 10:33:59;;;;;;;;;;;;;;;-144.99;98.39;52513.31;4989987;28;19929;-68
2024/04/05 10:36:26;;;;;;;;;;;;;;;-144.99;98.59;52521.47;4993229;28;19968;-67
2024/04/05 10:38:51;;;;;;;;;;;;;;;-144.99;98.61;52492.94;4998871;28;19933;-68
2024/04/05 10:41:18;;;;;;;;;;;;;;;-144.99;98.46;52480.72;4990715;28;20024;-68
2024/04/05 10:43:44;;;;;;;;;;;;;;;-144.99;98.61;52517.41;5001383;28;20315;-66
2024/04/05 10:46:13;;;;;;;;;;;;;;;-144.99;98.85;52537.78;4988908;28;19930;-66
2024/04/05 10:48:40;;;;;;;;;;;;;;;-144.99;98.89;52484.78;5004227;28;20395;-66
2024/04/05 10:51:06;;;;;;;;;;;;;;;-144.99;98.97;52505.16;4996538;28;19931;-66
2024/04/05 10:53:32;;;;;;;;;;;;;;;-144.99;99.90;52511.28;5004459;28;19937;-66
2024/04/05 10:55:59;;;;;;;;;;;;;;;-144.99;100.00;52497.00;4990589;28;20127;-66
2024/04/05 10:58:26;;;;;;;;;;;;;;;-144.99;99.38;52466.44;5004603;28;20096;-67
2024/04/05 11:00:53;;;;;;;;;;;;;;;-144.99;100.00;52541.84;5005827;28;19929;-67
2024/04/05 11:03:20;;;;;;;;;;;;;;;-144.99;100.00;52509.25;5001761;28;19992;-67
2024/04/05 11:05:48;;;;;;;;;;;;;;;-144.99;100.00;52509.25;4992675;28;19980;-66
2024/04/05 11:08:14;;;;;;;;;;;;;;;-144.99;100.00;52521.47;4999761;28;19925;-67
2024/04/05 11:10:41;;;;;;;;;;;;;;;-144.99;100.00;52452.16;5007931;28;19930;-67
2024/04/05 11:13:12;;;;;;;;;;;;;;;-144.99;99.71;52492.94;5000003;28;20064;-68
2024/04/05 11:15:39;;;;;;;;;;;;;;;-144.99;99.67;52521.47;5005593;28;20419;-68
2024/04/05 11:18:05;;;;;;;;;;;;;;;-144.99;99.71;52517.41;5002622;28;20447;-68
2024/04/05 11:20:35;;;;;;;;;;;;;;;-144.99;100.00;52501.09;4998921;28;19980;-68
2024/04/05 11:23:02;;;;;;;;;;;;;;;-144.99;100.00;52497.00;4989582;28;20020;-68
2024/04/05 11:25:28;;;;;;;;;;;;;;;-144.99;100.00;52515.34;5008135;28;20021;-68
2024/04/05 11:27:54;;;;;;;;;;;;;;;-144.99;100.00;52501.09;5007871;28;19987;-68
2024/04/05 11:30:21;;;;;;;;;;;;;;;-144.99;100.00;52505.16;5000362;28;19952;-68
2024/04/05 11:32:46;;;;;;;;;;;;;;;-144.99;100.00;52507.19;5006528;28;19971;-67
2024/04/05 11:35:13;;;;;;;;;;;;;;;-144.99;100.00;52511.28;5000768;28;20038;-68
2024/04/05 11:37:38;;;;;;;;;;;;;;;-144.99;100.00;52501.09;5001063;28;20021;-67
2024/04/05 11:40:09;;;;;;;;;;;;;;;-144.99;100.00;52545.94;5003737;28;20312;-68
2024/04/05 11:42:35;;;;;;;;;;;;;;;-144.99;100.00;52507.19;4996299;28;19926;-67
2024/04/05 11:45:01;;;;;;;;;;;;;;;-144.99;100.00;52525.56;4998994;28;19992;-68
2024/04/05 11:47:27;;;;;;;;;;;;;;;-144.99;100.00;52513.31;5005991;28;19964;-68
2024/04/05 11:49:54;;;;;;;;;;;;;;;-144.99;100.00;52517.41;5001210;28;19984;-67
2024/04/05 11:52:19;;;;;;;;;;;;;;;-144.99;100.00;52484.78;5001017;28;19980;-67
2024/04/05 11:54:47;;;;;;;;;;;;;;;-144.99;100.00;52488.84;4989524;28;20352;-67
2024/04/05 11:57:14;;;;;;;;;;;;;;;-144.99;100.00;52537.78;4994847;28;20008;-68
2024/04/05 11:59:40;;;;;;;;;;;;;;;-144.99;100.00;52497.00;4999876;28;19936;-67
2024/04/05 12:02:06;;;;;;;;;;;;;;;-144.99;100.00;52509.25;4997834;28;19987;-66
2024/04/05 12:04:32;;;;;;;;;;;;;;;-144.99;100.00;52525.56;5002855;28;19968;-65
2024/04/05 12:06:58;;;;;;;;;;;;;;;-144.99;100.00;52545.94;4990674;28;19969;-66
2024/04/05 12:09:24;;;;;;;;;;;;;;;-144.99;100.00;52541.84;5002352;28;20403;-66
2024/04/05 12:11:50;;;;;;;;;;;;;;;-144.99;100.00;52484.78;5000268;28;20144;-66
2024/04/05 12:14:18;;;;;;;;;;;;;;;-144.99;100.00;52539.81;5000828;28;20016;-67